sensor_id;sensor_type;location;lat;lon;timestamp;P1;durP1;ratioP1;P2;durP2;ratioP2
2848;SDS011;59355;52.416;13.412;2022-09-16T00:00:43;3.53;;;2.00;;
2848;SDS011;59355;52.416;13.412;2022-09-16T00:03:10;4.43;;;1.93;;
2848;SDS011;59355;52.416;13.412;2022-09-16T00:05:41;7.93;;;1.87;;
2848;SDS011;59355;52.416;13.412;2022-09-16T00:08:13;3.30;;;2.20;;
2848;SDS011;59355;52.416;13.412;2022-09-16T00:10:39;4.73;;;2.10;;
2848;SDS011;59355;52.416;13.412;2022-09-16T00:13:07;4.47;;;2.40;;
2848;SDS011;59355;52.416;13.412;2022-09-16T00:15:34;5.07;;;2.57;;
2848;SDS011;59355;52.416;13.412;2022-09-16T00:18:00;5.03;;;2.27;;
2848;SDS011;59355;52.416;13.412;2022-09-16T00:20:26;3.27;;;2.20;;
2848;SDS011;59355;52.416;13.412;2022-09-16T00:22:52;2.80;;;2.53;;
2848;SDS011;59355;52.416;13.412;2022-09-16T00:25:19;3.23;;;2.03;;
2848;SDS011;59355;52.416;13.412;2022-09-16T00:27:46;3.17;;;2.03;;
2848;SDS011;59355;52.416;13.412;2022-09-16T00:30:13;3.73;;;2.00;;
2848;SDS011;59355;52.416;13.412;2022-09-16T00:32:40;3.60;;;1.80;;
2848;SDS011;59355;52.416;13.412;2022-09-16T00:35:06;4.13;;;1.80;;
2848;SDS011;59355;52.416;13.412;2022-09-16T00:37:32;4.67;;;1.87;;
2848;SDS011;59355;52.416;13.412;2022-09-16T00:39:58;2.60;;;2.10;;
2848;SDS011;59355;52.416;13.412;2022-09-16T00:42:25;2.60;;;1.60;;
2848;SDS011;59355;52.416;13.412;2022-09-16T00:44:55;2.70;;;1.90;;
2848;SDS011;59355;52.416;13.412;2022-09-16T00:47:27;3.23;;;2.47;;
2848;SDS011;59355;52.416;13.412;2022-09-16T00:50:06;2.73;;;2.03;;
2848;SDS011;59355;52.416;13.412;2022-09-16T00:52:56;2.30;;;2.10;;
2848;SDS011;59355;52.416;13.412;2022-09-16T00:55:26;3.60;;;2.20;;
2848;SDS011;59355;52.416;13.412;2022-09-16T00:57:56;2.77;;;1.90;;
2848;SDS011;59355;52.416;13.412;2022-09-16T01:00:28;3.90;;;2.50;;
2848;SDS011;59355;52.416;13.412;2022-09-16T01:02:54;2.50;;;1.60;;
2848;SDS011;59355;52.416;13.412;2022-09-16T01:05:21;9.53;;;2.17;;
2848;SDS011;59355;52.416;13.412;2022-09-16T01:07:50;5.47;;;2.77;;
2848;SDS011;59355;52.416;13.412;2022-09-16T01:10:19;2.93;;;2.07;;
2848;SDS011;59355;52.416;13.412;2022-09-16T01:12:49;2.77;;;2.10;;
2848;SDS011;59355;52.416;13.412;2022-09-16T01:15:18;5.93;;;2.40;;
2848;SDS011;59355;52.416;13.412;2022-09-16T01:20:29;5.50;;;2.37;;
2848;SDS011;59355;52.416;13.412;2022-09-16T01:23:10;6.03;;;3.27;;
2848;SDS011;59355;52.416;13.412;2022-09-16T01:28:56;3.83;;;2.60;;
2848;SDS011;59355;52.416;13.412;2022-09-16T01:34:35;3.17;;;2.27;;
2848;SDS011;59355;52.416;13.412;2022-09-16T01:37:23;3.90;;;2.70;;
2848;SDS011;59355;52.416;13.412;2022-09-16T01:40:15;2.40;;;2.00;;
2848;SDS011;59355;52.416;13.412;2022-09-16T01:42:48;2.80;;;2.23;;
2848;SDS011;59355;52.416;13.412;2022-09-16T01:45:23;3.13;;;2.77;;
2848;SDS011;59355;52.416;13.412;2022-09-16T01:51:13;4.97;;;2.50;;
2848;SDS011;59355;52.416;13.412;2022-09-16T01:53:44;2.57;;;2.37;;
2848;SDS011;59355;52.416;13.412;2022-09-16T01:59:09;4.30;;;2.77;;
2848;SDS011;59355;52.416;13.412;2022-09-16T02:04:16;4.63;;;2.27;;
2848;SDS011;59355;52.416;13.412;2022-09-16T02:06:49;3.30;;;2.37;;
2848;SDS011;59355;52.416;13.412;2022-09-16T02:09:23;3.77;;;2.87;;
2848;SDS011;59355;52.416;13.412;2022-09-16T02:11:53;5.07;;;2.10;;
2848;SDS011;59355;52.416;13.412;2022-09-16T02:14:23;2.90;;;2.47;;
2848;SDS011;59355;52.416;13.412;2022-09-16T02:16:57;3.67;;;2.37;;
2848;SDS011;59355;52.416;13.412;2022-09-16T02:22:04;7.10;;;3.00;;
2848;SDS011;59355;52.416;13.412;2022-09-16T02:24:33;6.73;;;2.60;;
2848;SDS011;59355;52.416;13.412;2022-09-16T02:27:04;3.87;;;2.40;;
2848;SDS011;59355;52.416;13.412;2022-09-16T02:29:38;5.70;;;2.77;;
2848;SDS011;59355;52.416;13.412;2022-09-16T02:32:10;4.80;;;2.67;;
2848;SDS011;59355;52.416;13.412;2022-09-16T02:34:43;3.50;;;2.80;;
2848;SDS011;59355;52.416;13.412;2022-09-16T02:37:13;6.57;;;2.60;;
2848;SDS011;59355;52.416;13.412;2022-09-16T02:39:44;5.70;;;2.53;;
2848;SDS011;59355;52.416;13.412;2022-09-16T02:42:13;5.43;;;2.50;;
2848;SDS011;59355;52.416;13.412;2022-09-16T02:44:40;5.07;;;2.90;;
2848;SDS011;59355;52.416;13.412;2022-09-16T02:47:08;5.97;;;3.20;;
2848;SDS011;59355;52.416;13.412;2022-09-16T02:49:53;10.00;;;3.60;;
2848;SDS011;59355;52.416;13.412;2022-09-16T02:52:38;3.47;;;2.37;;
2848;SDS011;59355;52.416;13.412;2022-09-16T02:55:18;3.80;;;2.93;;
2848;SDS011;59355;52.416;13.412;2022-09-16T02:57:55;2.77;;;2.50;;
2848;SDS011;59355;52.416;13.412;2022-09-16T03:00:22;5.60;;;2.60;;
2848;SDS011;59355;52.416;13.412;2022-09-16T03:02:50;4.50;;;2.50;;
2848;SDS011;59355;52.416;13.412;2022-09-16T03:05:18;7.00;;;3.20;;
2848;SDS011;59355;52.416;13.412;2022-09-16T03:07:44;6.00;;;2.90;;
2848;SDS011;59355;52.416;13.412;2022-09-16T03:10:11;5.00;;;3.50;;
2848;SDS011;59355;52.416;13.412;2022-09-16T03:12:48;4.50;;;3.33;;
2848;SDS011;59355;52.416;13.412;2022-09-16T03:18:27;6.20;;;3.10;;
2848;SDS011;59355;52.416;13.412;2022-09-16T03:21:28;5.40;;;3.23;;
2848;SDS011;59355;52.416;13.412;2022-09-16T03:29:32;7.20;;;4.07;;
2848;SDS011;59355;52.416;13.412;2022-09-16T03:34:50;4.63;;;2.90;;
2848;SDS011;59355;52.416;13.412;2022-09-16T03:37:19;3.87;;;2.97;;
2848;SDS011;59355;52.416;13.412;2022-09-16T03:39:47;5.10;;;3.00;;
2848;SDS011;59355;52.416;13.412;2022-09-16T03:42:17;5.10;;;3.60;;
2848;SDS011;59355;52.416;13.412;2022-09-16T03:44:44;3.50;;;2.70;;
2848;SDS011;59355;52.416;13.412;2022-09-16T03:47:10;4.40;;;3.80;;
2848;SDS011;59355;52.416;13.412;2022-09-16T03:49:36;5.33;;;3.43;;
2848;SDS011;59355;52.416;13.412;2022-09-16T03:52:03;5.40;;;3.10;;
2848;SDS011;59355;52.416;13.412;2022-09-16T03:54:30;6.73;;;3.37;;
2848;SDS011;59355;52.416;13.412;2022-09-16T03:56:56;4.33;;;2.80;;
2848;SDS011;59355;52.416;13.412;2022-09-16T03:59:23;4.43;;;3.37;;
2848;SDS011;59355;52.416;13.412;2022-09-16T04:01:49;4.63;;;2.80;;
2848;SDS011;59355;52.416;13.412;2022-09-16T04:07:31;4.03;;;3.63;;
2848;SDS011;59355;52.416;13.412;2022-09-16T04:09:58;4.43;;;3.97;;
2848;SDS011;59355;52.416;13.412;2022-09-16T04:12:24;9.93;;;4.63;;
2848;SDS011;59355;52.416;13.412;2022-09-16T04:14:50;5.77;;;4.13;;
2848;SDS011;59355;52.416;13.412;2022-09-16T04:17:16;6.00;;;4.70;;
2848;SDS011;59355;52.416;13.412;2022-09-16T04:19:42;6.10;;;4.53;;
2848;SDS011;59355;52.416;13.412;2022-09-16T04:22:08;6.13;;;3.90;;
2848;SDS011;59355;52.416;13.412;2022-09-16T04:24:34;6.23;;;4.27;;
2848;SDS011;59355;52.416;13.412;2022-09-16T04:27:00;4.80;;;4.00;;
2848;SDS011;59355;52.416;13.412;2022-09-16T04:29:26;5.40;;;4.30;;
2848;SDS011;59355;52.416;13.412;2022-09-16T04:31:53;5.00;;;3.77;;
2848;SDS011;59355;52.416;13.412;2022-09-16T04:34:19;5.00;;;3.80;;
2848;SDS011;59355;52.416;13.412;2022-09-16T04:36:45;4.03;;;3.63;;
2848;SDS011;59355;52.416;13.412;2022-09-16T04:39:11;4.63;;;3.43;;
2848;SDS011;59355;52.416;13.412;2022-09-16T04:41:38;6.13;;;3.77;;
2848;SDS011;59355;52.416;13.412;2022-09-16T04:44:04;11.90;;;4.33;;
2848;SDS011;59355;52.416;13.412;2022-09-16T04:46:30;8.40;;;4.40;;
2848;SDS011;59355;52.416;13.412;2022-09-16T04:48:57;5.90;;;4.10;;
2848;SDS011;59355;52.416;13.412;2022-09-16T04:51:24;4.50;;;3.37;;
2848;SDS011;59355;52.416;13.412;2022-09-16T04:53:52;4.97;;;3.30;;
2848;SDS011;59355;52.416;13.412;2022-09-16T04:56:21;4.43;;;3.43;;
2848;SDS011;59355;52.416;13.412;2022-09-16T04:58:57;7.93;;;3.70;;
2848;SDS011;59355;52.416;13.412;2022-09-16T05:01:26;6.63;;;4.27;;
2848;SDS011;59355;52.416;13.412;2022-09-16T05:03:56;5.47;;;3.37;;
2848;SDS011;59355;52.416;13.412;2022-09-16T05:06:25;5.57;;;3.27;;
2848;SDS011;59355;52.416;13.412;2022-09-16T05:08:52;4.23;;;3.60;;
2848;SDS011;59355;52.416;13.412;2022-09-16T05:11:20;3.97;;;3.50;;
2848;SDS011;59355;52.416;13.412;2022-09-16T05:13:48;4.73;;;3.20;;
2848;SDS011;59355;52.416;13.412;2022-09-16T05:16:15;3.60;;;3.13;;
2848;SDS011;59355;52.416;13.412;2022-09-16T05:18:45;4.97;;;2.93;;
2848;SDS011;59355;52.416;13.412;2022-09-16T05:21:13;5.03;;;3.20;;
2848;SDS011;59355;52.416;13.412;2022-09-16T05:23:41;7.27;;;4.63;;
2848;SDS011;59355;52.416;13.412;2022-09-16T05:26:10;4.40;;;2.93;;
2848;SDS011;59355;52.416;13.412;2022-09-16T05:28:39;5.23;;;4.03;;
2848;SDS011;59355;52.416;13.412;2022-09-16T05:33:34;5.23;;;2.83;;
2848;SDS011;59355;52.416;13.412;2022-09-16T05:36:04;3.80;;;3.40;;
2848;SDS011;59355;52.416;13.412;2022-09-16T05:38:34;4.80;;;3.30;;
2848;SDS011;59355;52.416;13.412;2022-09-16T05:41:01;4.83;;;3.10;;
2848;SDS011;59355;52.416;13.412;2022-09-16T05:43:28;6.27;;;3.20;;
2848;SDS011;59355;52.416;13.412;2022-09-16T05:45:54;4.23;;;3.30;;
2848;SDS011;59355;52.416;13.412;2022-09-16T05:48:20;4.53;;;3.40;;
2848;SDS011;59355;52.416;13.412;2022-09-16T05:50:54;5.37;;;3.13;;
2848;SDS011;59355;52.416;13.412;2022-09-16T05:53:22;4.20;;;3.27;;
2848;SDS011;59355;52.416;13.412;2022-09-16T05:58:22;5.73;;;2.73;;
2848;SDS011;59355;52.416;13.412;2022-09-16T06:00:48;4.00;;;3.60;;
2848;SDS011;59355;52.416;13.412;2022-09-16T06:03:15;4.60;;;3.00;;
2848;SDS011;59355;52.416;13.412;2022-09-16T06:05:41;4.90;;;3.10;;
2848;SDS011;59355;52.416;13.412;2022-09-16T06:08:07;3.50;;;2.83;;
2848;SDS011;59355;52.416;13.412;2022-09-16T06:10:40;3.70;;;2.60;;
2848;SDS011;59355;52.416;13.412;2022-09-16T06:13:06;7.17;;;2.87;;
2848;SDS011;59355;52.416;13.412;2022-09-16T06:15:33;3.47;;;2.83;;
2848;SDS011;59355;52.416;13.412;2022-09-16T06:18:00;6.30;;;2.83;;
2848;SDS011;59355;52.416;13.412;2022-09-16T06:20:26;5.77;;;2.67;;
2848;SDS011;59355;52.416;13.412;2022-09-16T06:22:52;3.77;;;2.80;;
2848;SDS011;59355;52.416;13.412;2022-09-16T06:25:19;4.00;;;2.77;;
2848;SDS011;59355;52.416;13.412;2022-09-16T06:27:45;8.70;;;3.03;;
2848;SDS011;59355;52.416;13.412;2022-09-16T06:30:11;4.40;;;2.87;;
2848;SDS011;59355;52.416;13.412;2022-09-16T06:32:37;5.57;;;4.10;;
2848;SDS011;59355;52.416;13.412;2022-09-16T06:35:03;8.07;;;3.30;;
2848;SDS011;59355;52.416;13.412;2022-09-16T06:37:29;7.43;;;3.03;;
2848;SDS011;59355;52.416;13.412;2022-09-16T06:39:55;6.37;;;2.97;;
2848;SDS011;59355;52.416;13.412;2022-09-16T06:42:21;4.10;;;2.90;;
2848;SDS011;59355;52.416;13.412;2022-09-16T06:44:48;3.57;;;3.20;;
2848;SDS011;59355;52.416;13.412;2022-09-16T06:47:14;3.23;;;2.93;;
2848;SDS011;59355;52.416;13.412;2022-09-16T06:49:40;5.30;;;3.77;;
2848;SDS011;59355;52.416;13.412;2022-09-16T06:52:06;3.60;;;2.73;;
2848;SDS011;59355;52.416;13.412;2022-09-16T06:54:33;9.10;;;3.20;;
2848;SDS011;59355;52.416;13.412;2022-09-16T06:56:59;5.03;;;2.90;;
2848;SDS011;59355;52.416;13.412;2022-09-16T06:59:26;3.87;;;2.73;;
2848;SDS011;59355;52.416;13.412;2022-09-16T07:01:52;5.40;;;4.10;;
2848;SDS011;59355;52.416;13.412;2022-09-16T07:04:18;6.00;;;2.70;;
2848;SDS011;59355;52.416;13.412;2022-09-16T07:06:44;4.00;;;3.20;;
2848;SDS011;59355;52.416;13.412;2022-09-16T07:09:11;5.13;;;2.60;;
2848;SDS011;59355;52.416;13.412;2022-09-16T07:11:38;7.63;;;3.80;;
2848;SDS011;59355;52.416;13.412;2022-09-16T07:14:05;5.47;;;3.00;;
2848;SDS011;59355;52.416;13.412;2022-09-16T07:16:32;4.10;;;3.10;;
2848;SDS011;59355;52.416;13.412;2022-09-16T07:18:58;4.30;;;2.80;;
2848;SDS011;59355;52.416;13.412;2022-09-16T07:21:25;5.40;;;4.03;;
2848;SDS011;59355;52.416;13.412;2022-09-16T07:23:55;6.70;;;3.10;;
2848;SDS011;59355;52.416;13.412;2022-09-16T07:26:23;3.23;;;2.93;;
2848;SDS011;59355;52.416;13.412;2022-09-16T07:28:52;9.43;;;4.30;;
2848;SDS011;59355;52.416;13.412;2022-09-16T07:31:20;6.30;;;2.80;;
2848;SDS011;59355;52.416;13.412;2022-09-16T07:33:49;3.40;;;2.80;;
2848;SDS011;59355;52.416;13.412;2022-09-16T07:36:24;4.73;;;2.73;;
2848;SDS011;59355;52.416;13.412;2022-09-16T07:38:52;3.47;;;2.47;;
2848;SDS011;59355;52.416;13.412;2022-09-16T07:41:22;3.53;;;2.20;;
2848;SDS011;59355;52.416;13.412;2022-09-16T07:43:51;3.50;;;2.10;;
2848;SDS011;59355;52.416;13.412;2022-09-16T07:46:18;5.10;;;2.60;;
2848;SDS011;59355;52.416;13.412;2022-09-16T07:48:45;5.30;;;2.73;;
2848;SDS011;59355;52.416;13.412;2022-09-16T07:51:14;3.53;;;1.90;;
2848;SDS011;59355;52.416;13.412;2022-09-16T07:53:41;4.87;;;2.67;;
2848;SDS011;59355;52.416;13.412;2022-09-16T07:56:11;4.93;;;2.87;;
2848;SDS011;59355;52.416;13.412;2022-09-16T07:58:39;5.10;;;2.47;;
2848;SDS011;59355;52.416;13.412;2022-09-16T08:01:06;2.70;;;2.30;;
2848;SDS011;59355;52.416;13.412;2022-09-16T08:03:33;9.63;;;2.93;;
2848;SDS011;59355;52.416;13.412;2022-09-16T08:06:01;3.30;;;2.67;;
2848;SDS011;59355;52.416;13.412;2022-09-16T08:08:30;3.83;;;3.17;;
2848;SDS011;59355;52.416;13.412;2022-09-16T08:10:56;2.40;;;2.20;;
2848;SDS011;59355;52.416;13.412;2022-09-16T08:13:24;5.00;;;2.80;;
2848;SDS011;59355;52.416;13.412;2022-09-16T08:15:51;4.00;;;2.53;;
2848;SDS011;59355;52.416;13.412;2022-09-16T08:18:18;5.50;;;3.00;;
2848;SDS011;59355;52.416;13.412;2022-09-16T08:20:44;2.87;;;2.50;;
2848;SDS011;59355;52.416;13.412;2022-09-16T08:23:10;14.30;;;3.70;;
2848;SDS011;59355;52.416;13.412;2022-09-16T08:25:38;4.47;;;2.50;;
2848;SDS011;59355;52.416;13.412;2022-09-16T08:28:13;5.63;;;2.47;;
2848;SDS011;59355;52.416;13.412;2022-09-16T08:30:40;9.87;;;2.40;;
2848;SDS011;59355;52.416;13.412;2022-09-16T08:33:07;4.53;;;2.53;;
2848;SDS011;59355;52.416;13.412;2022-09-16T08:35:33;4.40;;;2.70;;
2848;SDS011;59355;52.416;13.412;2022-09-16T08:37:59;4.83;;;2.80;;
2848;SDS011;59355;52.416;13.412;2022-09-16T08:40:25;4.10;;;2.40;;
2848;SDS011;59355;52.416;13.412;2022-09-16T08:43:00;4.67;;;2.37;;
2848;SDS011;59355;52.416;13.412;2022-09-16T08:50:31;6.57;;;2.67;;
2848;SDS011;59355;52.416;13.412;2022-09-16T08:53:02;5.30;;;2.70;;
2848;SDS011;59355;52.416;13.412;2022-09-16T08:55:33;3.03;;;2.30;;
2848;SDS011;59355;52.416;13.412;2022-09-16T09:00:41;5.30;;;2.47;;
2848;SDS011;59355;52.416;13.412;2022-09-16T09:05:56;4.00;;;2.23;;
2848;SDS011;59355;52.416;13.412;2022-09-16T09:13:59;5.33;;;2.23;;
2848;SDS011;59355;52.416;13.412;2022-09-16T09:16:52;3.03;;;1.70;;
2848;SDS011;59355;52.416;13.412;2022-09-16T09:24:30;4.83;;;2.00;;
2848;SDS011;59355;52.416;13.412;2022-09-16T09:27:25;5.40;;;2.20;;
2848;SDS011;59355;52.416;13.412;2022-09-16T09:30:02;5.27;;;2.13;;
2848;SDS011;59355;52.416;13.412;2022-09-16T09:41:28;5.87;;;2.30;;
2848;SDS011;59355;52.416;13.412;2022-09-16T09:46:57;4.33;;;2.77;;
2848;SDS011;59355;52.416;13.412;2022-09-16T09:49:28;5.10;;;2.03;;
2848;SDS011;59355;52.416;13.412;2022-09-16T09:52:13;2.73;;;1.80;;
2848;SDS011;59355;52.416;13.412;2022-09-16T09:54:48;2.60;;;1.80;;
2848;SDS011;59355;52.416;13.412;2022-09-16T09:57:21;7.00;;;2.60;;
2848;SDS011;59355;52.416;13.412;2022-09-16T10:02:36;3.17;;;1.70;;
2848;SDS011;59355;52.416;13.412;2022-09-16T10:05:08;4.70;;;2.00;;
2848;SDS011;59355;52.416;13.412;2022-09-16T10:07:48;3.90;;;2.00;;
2848;SDS011;59355;52.416;13.412;2022-09-16T10:10:21;2.70;;;1.80;;
2848;SDS011;59355;52.416;13.412;2022-09-16T10:12:49;10.00;;;2.40;;
2848;SDS011;59355;52.416;13.412;2022-09-16T10:17:55;4.27;;;2.33;;
2848;SDS011;59355;52.416;13.412;2022-09-16T10:20:27;5.57;;;1.70;;
2848;SDS011;59355;52.416;13.412;2022-09-16T10:22:59;4.30;;;1.93;;
2848;SDS011;59355;52.416;13.412;2022-09-16T10:25:29;6.40;;;2.33;;
2848;SDS011;59355;52.416;13.412;2022-09-16T10:27:59;3.53;;;1.80;;
2848;SDS011;59355;52.416;13.412;2022-09-16T10:30:27;7.03;;;2.40;;
2848;SDS011;59355;52.416;13.412;2022-09-16T10:32:59;3.43;;;1.63;;
2848;SDS011;59355;52.416;13.412;2022-09-16T10:35:35;4.23;;;2.00;;
2848;SDS011;59355;52.416;13.412;2022-09-16T10:40:54;4.63;;;2.43;;
2848;SDS011;59355;52.416;13.412;2022-09-16T10:43:26;3.67;;;1.77;;
2848;SDS011;59355;52.416;13.412;2022-09-16T10:45:54;4.87;;;2.90;;
2848;SDS011;59355;52.416;13.412;2022-09-16T10:48:22;4.17;;;2.07;;
2848;SDS011;59355;52.416;13.412;2022-09-16T10:50:55;3.70;;;1.63;;
2848;SDS011;59355;52.416;13.412;2022-09-16T10:53:35;5.30;;;1.63;;
2848;SDS011;59355;52.416;13.412;2022-09-16T10:56:04;4.60;;;1.93;;
2848;SDS011;59355;52.416;13.412;2022-09-16T10:58:31;5.90;;;2.40;;
2848;SDS011;59355;52.416;13.412;2022-09-16T11:01:04;5.93;;;3.07;;
2848;SDS011;59355;52.416;13.412;2022-09-16T11:06:20;4.60;;;1.90;;
2848;SDS011;59355;52.416;13.412;2022-09-16T11:14:26;5.60;;;3.40;;
2848;SDS011;59355;52.416;13.412;2022-09-16T11:20:00;4.50;;;1.70;;
2848;SDS011;59355;52.416;13.412;2022-09-16T11:22:58;2.63;;;1.50;;
2848;SDS011;59355;52.416;13.412;2022-09-16T11:30:52;3.70;;;1.80;;
2848;SDS011;59355;52.416;13.412;2022-09-16T11:36:18;3.50;;;1.60;;
2848;SDS011;59355;52.416;13.412;2022-09-16T11:39:02;9.77;;;2.10;;
2848;SDS011;59355;52.416;13.412;2022-09-16T11:44:25;4.13;;;1.83;;
2848;SDS011;59355;52.416;13.412;2022-09-16T11:49:51;3.23;;;2.40;;
2848;SDS011;59355;52.416;13.412;2022-09-16T11:55:26;4.23;;;2.23;;
2848;SDS011;59355;52.416;13.412;2022-09-16T11:58:21;3.67;;;1.77;;
2848;SDS011;59355;52.416;13.412;2022-09-16T12:00:53;4.80;;;1.67;;
2848;SDS011;59355;52.416;13.412;2022-09-16T12:03:27;5.40;;;1.63;;
2848;SDS011;59355;52.416;13.412;2022-09-16T12:06:06;3.50;;;1.50;;
2848;SDS011;59355;52.416;13.412;2022-09-16T12:11:25;5.17;;;1.83;;
2848;SDS011;59355;52.416;13.412;2022-09-16T12:14:04;3.07;;;1.60;;
2848;SDS011;59355;52.416;13.412;2022-09-16T12:16:42;3.40;;;2.10;;
2848;SDS011;59355;52.416;13.412;2022-09-16T12:19:18;4.00;;;1.60;;
2848;SDS011;59355;52.416;13.412;2022-09-16T12:21:50;2.60;;;1.70;;
2848;SDS011;59355;52.416;13.412;2022-09-16T12:30:13;2.27;;;1.60;;
2848;SDS011;59355;52.416;13.412;2022-09-16T12:32:56;4.30;;;1.93;;
2848;SDS011;59355;52.416;13.412;2022-09-16T12:35:32;3.83;;;2.00;;
2848;SDS011;59355;52.416;13.412;2022-09-16T12:38:17;2.50;;;1.67;;
2848;SDS011;59355;52.416;13.412;2022-09-16T12:40:57;4.90;;;2.13;;
2848;SDS011;59355;52.416;13.412;2022-09-16T12:49:28;3.10;;;1.43;;
2848;SDS011;59355;52.416;13.412;2022-09-16T12:54:54;3.50;;;1.97;;
2848;SDS011;59355;52.416;13.412;2022-09-16T12:57:52;4.60;;;1.97;;
2848;SDS011;59355;52.416;13.412;2022-09-16T13:01:10;7.40;;;2.27;;
2848;SDS011;59355;52.416;13.412;2022-09-16T13:03:51;2.53;;;1.67;;
2848;SDS011;59355;52.416;13.412;2022-09-16T13:06:22;3.23;;;1.53;;
2848;SDS011;59355;52.416;13.412;2022-09-16T13:08:54;4.60;;;2.50;;
2848;SDS011;59355;52.416;13.412;2022-09-16T13:11:22;2.20;;;1.80;;
2848;SDS011;59355;52.416;13.412;2022-09-16T13:13:54;4.10;;;1.70;;
2848;SDS011;59355;52.416;13.412;2022-09-16T13:16:29;7.73;;;1.73;;
2848;SDS011;59355;52.416;13.412;2022-09-16T13:19:21;3.23;;;1.70;;
2848;SDS011;59355;52.416;13.412;2022-09-16T13:21:59;3.63;;;1.70;;
2848;SDS011;59355;52.416;13.412;2022-09-16T13:24:36;4.10;;;1.63;;
2848;SDS011;59355;52.416;13.412;2022-09-16T13:29:52;2.90;;;1.40;;
2848;SDS011;59355;52.416;13.412;2022-09-16T13:32:36;4.93;;;2.13;;
2848;SDS011;59355;52.416;13.412;2022-09-16T13:37:56;3.30;;;1.67;;
2848;SDS011;59355;52.416;13.412;2022-09-16T13:40:25;3.87;;;1.63;;
2848;SDS011;59355;52.416;13.412;2022-09-16T13:45:35;2.60;;;1.47;;
2848;SDS011;59355;52.416;13.412;2022-09-16T13:48:15;3.40;;;1.20;;
2848;SDS011;59355;52.416;13.412;2022-09-16T13:50:49;6.60;;;2.03;;
2848;SDS011;59355;52.416;13.412;2022-09-16T13:53:25;3.17;;;1.60;;
2848;SDS011;59355;52.416;13.412;2022-09-16T13:56:20;3.83;;;2.13;;
2848;SDS011;59355;52.416;13.412;2022-09-16T14:01:37;2.00;;;1.57;;
2848;SDS011;59355;52.416;13.412;2022-09-16T14:04:30;7.10;;;1.60;;
2848;SDS011;59355;52.416;13.412;2022-09-16T14:12:42;3.73;;;1.40;;
2848;SDS011;59355;52.416;13.412;2022-09-16T14:15:22;3.07;;;1.40;;
2848;SDS011;59355;52.416;13.412;2022-09-16T14:17:50;3.33;;;1.60;;
2848;SDS011;59355;52.416;13.412;2022-09-16T14:20:20;7.93;;;2.60;;
2848;SDS011;59355;52.416;13.412;2022-09-16T14:22:58;3.63;;;1.43;;
2848;SDS011;59355;52.416;13.412;2022-09-16T14:30:55;3.00;;;1.90;;
2848;SDS011;59355;52.416;13.412;2022-09-16T14:33:24;2.47;;;1.40;;
2848;SDS011;59355;52.416;13.412;2022-09-16T14:36:13;4.40;;;1.90;;
2848;SDS011;59355;52.416;13.412;2022-09-16T14:38:52;4.13;;;1.33;;
2848;SDS011;59355;52.416;13.412;2022-09-16T14:41:22;4.90;;;1.80;;
2848;SDS011;59355;52.416;13.412;2022-09-16T14:44:05;5.80;;;1.53;;
2848;SDS011;59355;52.416;13.412;2022-09-16T14:46:44;3.20;;;1.53;;
2848;SDS011;59355;52.416;13.412;2022-09-16T14:49:28;3.10;;;1.70;;
2848;SDS011;59355;52.416;13.412;2022-09-16T14:51:55;4.40;;;1.67;;
2848;SDS011;59355;52.416;13.412;2022-09-16T14:54:24;2.63;;;1.50;;
2848;SDS011;59355;52.416;13.412;2022-09-16T14:59:22;3.87;;;1.57;;
2848;SDS011;59355;52.416;13.412;2022-09-16T15:01:56;3.87;;;1.70;;
2848;SDS011;59355;52.416;13.412;2022-09-16T15:04:30;4.63;;;1.87;;
2848;SDS011;59355;52.416;13.412;2022-09-16T15:07:01;3.70;;;1.47;;
2848;SDS011;59355;52.416;13.412;2022-09-16T15:12:16;5.00;;;1.90;;
2848;SDS011;59355;52.416;13.412;2022-09-16T15:14:51;4.07;;;1.40;;
2848;SDS011;59355;52.416;13.412;2022-09-16T15:17:18;2.43;;;1.60;;
2848;SDS011;59355;52.416;13.412;2022-09-16T15:19:47;4.17;;;1.77;;
2848;SDS011;59355;52.416;13.412;2022-09-16T15:22:18;7.00;;;1.77;;
2848;SDS011;59355;52.416;13.412;2022-09-16T15:24:45;3.50;;;1.47;;
2848;SDS011;59355;52.416;13.412;2022-09-16T15:27:47;3.60;;;1.80;;
2848;SDS011;59355;52.416;13.412;2022-09-16T15:30:18;5.53;;;1.70;;
2848;SDS011;59355;52.416;13.412;2022-09-16T15:32:46;3.80;;;1.50;;
2848;SDS011;59355;52.416;13.412;2022-09-16T15:35:17;2.53;;;1.40;;
2848;SDS011;59355;52.416;13.412;2022-09-16T15:37:48;2.87;;;1.70;;
2848;SDS011;59355;52.416;13.412;2022-09-16T15:46:03;4.93;;;1.80;;
2848;SDS011;59355;52.416;13.412;2022-09-16T15:48:42;4.30;;;1.83;;
2848;SDS011;59355;52.416;13.412;2022-09-16T15:51:28;4.10;;;1.60;;
2848;SDS011;59355;52.416;13.412;2022-09-16T15:54:00;3.07;;;1.90;;
2848;SDS011;59355;52.416;13.412;2022-09-16T15:59:25;2.83;;;2.10;;
2848;SDS011;59355;52.416;13.412;2022-09-16T16:01:57;3.63;;;1.83;;
2848;SDS011;59355;52.416;13.412;2022-09-16T16:04:30;4.07;;;1.90;;
2848;SDS011;59355;52.416;13.412;2022-09-16T16:06:58;4.20;;;1.70;;
2848;SDS011;59355;52.416;13.412;2022-09-16T16:11:52;3.87;;;2.10;;
2848;SDS011;59355;52.416;13.412;2022-09-16T16:14:18;2.47;;;2.03;;
2848;SDS011;59355;52.416;13.412;2022-09-16T16:16:44;5.27;;;2.00;;
2848;SDS011;59355;52.416;13.412;2022-09-16T16:19:10;3.23;;;1.53;;
2848;SDS011;59355;52.416;13.412;2022-09-16T16:21:38;3.90;;;1.63;;
2848;SDS011;59355;52.416;13.412;2022-09-16T16:24:13;6.73;;;1.60;;
2848;SDS011;59355;52.416;13.412;2022-09-16T16:26:40;8.47;;;1.80;;
2848;SDS011;59355;52.416;13.412;2022-09-16T16:29:06;2.90;;;1.60;;
2848;SDS011;59355;52.416;13.412;2022-09-16T16:31:32;6.33;;;2.00;;
2848;SDS011;59355;52.416;13.412;2022-09-16T16:34:00;3.57;;;2.23;;
2848;SDS011;59355;52.416;13.412;2022-09-16T16:36:27;4.00;;;1.60;;
2848;SDS011;59355;52.416;13.412;2022-09-16T16:38:53;5.60;;;1.80;;
2848;SDS011;59355;52.416;13.412;2022-09-16T16:41:20;3.83;;;1.97;;
2848;SDS011;59355;52.416;13.412;2022-09-16T16:43:48;3.17;;;1.73;;
2848;SDS011;59355;52.416;13.412;2022-09-16T16:46:15;5.07;;;1.50;;
2848;SDS011;59355;52.416;13.412;2022-09-16T16:48:42;3.07;;;1.37;;
2848;SDS011;59355;52.416;13.412;2022-09-16T16:51:10;7.80;;;1.90;;
2848;SDS011;59355;52.416;13.412;2022-09-16T16:53:37;3.73;;;3.07;;
2848;SDS011;59355;52.416;13.412;2022-09-16T16:56:04;3.27;;;1.70;;
2848;SDS011;59355;52.416;13.412;2022-09-16T16:58:35;5.90;;;1.83;;
2848;SDS011;59355;52.416;13.412;2022-09-16T17:01:20;2.87;;;1.70;;
2848;SDS011;59355;52.416;13.412;2022-09-16T17:03:46;5.53;;;1.73;;
2848;SDS011;59355;52.416;13.412;2022-09-16T17:06:16;4.23;;;1.90;;
2848;SDS011;59355;52.416;13.412;2022-09-16T17:08:42;8.80;;;2.60;;
2848;SDS011;59355;52.416;13.412;2022-09-16T17:13:42;3.30;;;1.67;;
2848;SDS011;59355;52.416;13.412;2022-09-16T17:16:11;2.97;;;1.90;;
2848;SDS011;59355;52.416;13.412;2022-09-16T17:18:39;3.37;;;1.50;;
2848;SDS011;59355;52.416;13.412;2022-09-16T17:21:16;5.50;;;1.67;;
2848;SDS011;59355;52.416;13.412;2022-09-16T17:23:45;5.47;;;1.97;;
2848;SDS011;59355;52.416;13.412;2022-09-16T17:26:11;3.10;;;2.17;;
2848;SDS011;59355;52.416;13.412;2022-09-16T17:28:38;6.10;;;2.30;;
2848;SDS011;59355;52.416;13.412;2022-09-16T17:31:09;3.97;;;2.03;;
2848;SDS011;59355;52.416;13.412;2022-09-16T17:33:36;5.00;;;2.50;;
2848;SDS011;59355;52.416;13.412;2022-09-16T17:36:06;5.03;;;2.00;;
2848;SDS011;59355;52.416;13.412;2022-09-16T17:38:33;4.03;;;2.50;;
2848;SDS011;59355;52.416;13.412;2022-09-16T17:41:04;7.63;;;2.30;;
2848;SDS011;59355;52.416;13.412;2022-09-16T17:43:35;5.00;;;2.03;;
2848;SDS011;59355;52.416;13.412;2022-09-16T17:46:03;4.57;;;2.00;;
2848;SDS011;59355;52.416;13.412;2022-09-16T17:48:31;6.37;;;2.47;;
2848;SDS011;59355;52.416;13.412;2022-09-16T17:50:58;5.43;;;2.67;;
2848;SDS011;59355;52.416;13.412;2022-09-16T17:53:24;5.10;;;1.77;;
2848;SDS011;59355;52.416;13.412;2022-09-16T17:55:50;3.50;;;1.80;;
2848;SDS011;59355;52.416;13.412;2022-09-16T17:58:17;3.30;;;1.63;;